sensor_id;sensor_type;location;lat;lon;timestamp;P1;durP1;ratioP1;P2;durP2;ratioP2
13090;SDS011;6611;52.604;13.438;2023-04-25T00:04:44;4.10;;;1.97;;
13090;SDS011;6611;52.604;13.438;2023-04-25T00:09:48;4.13;;;1.97;;
13090;SDS011;6611;52.604;13.438;2023-04-25T00:14:50;4.47;;;1.73;;
13090;SDS011;6611;52.604;13.438;2023-04-25T00:19:54;4.70;;;1.70;;
13090;SDS011;6611;52.604;13.438;2023-04-25T00:24:56;2.30;;;1.90;;
13090;SDS011;6611;52.604;13.438;2023-04-25T00:30:00;3.47;;;1.70;;
13090;SDS011;6611;52.604;13.438;2023-04-25T00:35:03;2.80;;;1.70;;
13090;SDS011;6611;52.604;13.438;2023-04-25T00:40:06;1.67;;;1.40;;
13090;SDS011;6611;52.604;13.438;2023-04-25T00:45:08;3.63;;;1.60;;
13090;SDS011;6611;52.604;13.438;2023-04-25T00:50:16;2.70;;;1.73;;
13090;SDS011;6611;52.604;13.438;2023-04-25T00:55:17;1.87;;;1.40;;
13090;SDS011;6611;52.604;13.438;2023-04-25T01:00:19;2.37;;;1.40;;
13090;SDS011;6611;52.604;13.438;2023-04-25T01:05:23;2.43;;;1.43;;
13090;SDS011;6611;52.604;13.438;2023-04-25T01:10:25;4.47;;;1.63;;
13090;SDS011;6611;52.604;13.438;2023-04-25T01:15:26;2.20;;;1.67;;
13090;SDS011;6611;52.604;13.438;2023-04-25T01:20:30;4.83;;;1.73;;
13090;SDS011;6611;52.604;13.438;2023-04-25T01:25:35;2.27;;;1.57;;
13090;SDS011;6611;52.604;13.438;2023-04-25T01:30:37;3.53;;;1.73;;
13090;SDS011;6611;52.604;13.438;2023-04-25T01:35:39;3.23;;;1.80;;
13090;SDS011;6611;52.604;13.438;2023-04-25T01:40:43;4.77;;;1.70;;
13090;SDS011;6611;52.604;13.438;2023-04-25T01:45:46;2.93;;;1.60;;
13090;SDS011;6611;52.604;13.438;2023-04-25T01:50:49;4.80;;;1.80;;
13090;SDS011;6611;52.604;13.438;2023-04-25T01:55:52;3.47;;;1.70;;
13090;SDS011;6611;52.604;13.438;2023-04-25T02:00:53;3.63;;;2.03;;
13090;SDS011;6611;52.604;13.438;2023-04-25T02:05:55;3.67;;;1.90;;
13090;SDS011;6611;52.604;13.438;2023-04-25T02:10:58;6.63;;;1.70;;
13090;SDS011;6611;52.604;13.438;2023-04-25T02:16:00;2.93;;;1.90;;
13090;SDS011;6611;52.604;13.438;2023-04-25T02:21:02;3.07;;;1.80;;
13090;SDS011;6611;52.604;13.438;2023-04-25T02:26:05;2.73;;;2.10;;
13090;SDS011;6611;52.604;13.438;2023-04-25T02:31:07;5.23;;;2.07;;
13090;SDS011;6611;52.604;13.438;2023-04-25T02:36:08;5.23;;;2.17;;
13090;SDS011;6611;52.604;13.438;2023-04-25T02:41:11;5.57;;;2.67;;
13090;SDS011;6611;52.604;13.438;2023-04-25T02:46:13;4.37;;;2.00;;
13090;SDS011;6611;52.604;13.438;2023-04-25T02:51:15;6.53;;;2.27;;
13090;SDS011;6611;52.604;13.438;2023-04-25T02:56:18;3.37;;;1.93;;
13090;SDS011;6611;52.604;13.438;2023-04-25T03:01:20;3.53;;;2.33;;
13090;SDS011;6611;52.604;13.438;2023-04-25T03:06:22;4.30;;;1.97;;
13090;SDS011;6611;52.604;13.438;2023-04-25T03:11:25;3.70;;;2.30;;
13090;SDS011;6611;52.604;13.438;2023-04-25T03:16:27;4.53;;;2.23;;
13090;SDS011;6611;52.604;13.438;2023-04-25T03:21:28;3.50;;;2.20;;
13090;SDS011;6611;52.604;13.438;2023-04-25T03:26:33;2.93;;;2.40;;
13090;SDS011;6611;52.604;13.438;2023-04-25T03:31:34;6.60;;;2.63;;
13090;SDS011;6611;52.604;13.438;2023-04-25T03:36:36;5.00;;;2.23;;
13090;SDS011;6611;52.604;13.438;2023-04-25T03:41:39;5.47;;;2.43;;
13090;SDS011;6611;52.604;13.438;2023-04-25T03:46:41;2.57;;;2.17;;
13090;SDS011;6611;52.604;13.438;2023-04-25T03:51:42;4.23;;;2.20;;
13090;SDS011;6611;52.604;13.438;2023-04-25T03:56:45;4.33;;;2.60;;
13090;SDS011;6611;52.604;13.438;2023-04-25T04:01:48;5.37;;;2.50;;
13090;SDS011;6611;52.604;13.438;2023-04-25T04:06:50;4.73;;;2.43;;
13090;SDS011;6611;52.604;13.438;2023-04-25T04:11:53;3.47;;;2.43;;
13090;SDS011;6611;52.604;13.438;2023-04-25T04:16:55;5.47;;;2.50;;
13090;SDS011;6611;52.604;13.438;2023-04-25T04:21:57;3.47;;;2.53;;
13090;SDS011;6611;52.604;13.438;2023-04-25T04:27:00;3.60;;;2.40;;
13090;SDS011;6611;52.604;13.438;2023-04-25T04:32:02;3.50;;;2.43;;
13090;SDS011;6611;52.604;13.438;2023-04-25T04:37:03;3.67;;;2.27;;
13090;SDS011;6611;52.604;13.438;2023-04-25T04:42:07;3.83;;;1.83;;
13090;SDS011;6611;52.604;13.438;2023-04-25T04:47:09;3.97;;;2.90;;
13090;SDS011;6611;52.604;13.438;2023-04-25T04:52:12;3.10;;;2.33;;
13090;SDS011;6611;52.604;13.438;2023-04-25T04:57:15;4.43;;;2.10;;
13090;SDS011;6611;52.604;13.438;2023-04-25T05:02:17;3.37;;;2.23;;
13090;SDS011;6611;52.604;13.438;2023-04-25T05:07:19;3.50;;;1.97;;
13090;SDS011;6611;52.604;13.438;2023-04-25T05:12:22;4.07;;;2.00;;
13090;SDS011;6611;52.604;13.438;2023-04-25T05:17:24;2.93;;;2.10;;
13090;SDS011;6611;52.604;13.438;2023-04-25T05:22:26;3.40;;;1.80;;
13090;SDS011;6611;52.604;13.438;2023-04-25T05:27:29;3.93;;;2.10;;
13090;SDS011;6611;52.604;13.438;2023-04-25T05:32:30;4.33;;;2.10;;
13090;SDS011;6611;52.604;13.438;2023-04-25T05:37:32;4.50;;;2.00;;
13090;SDS011;6611;52.604;13.438;2023-04-25T05:42:35;6.17;;;2.47;;
13090;SDS011;6611;52.604;13.438;2023-04-25T05:47:37;3.80;;;2.20;;
13090;SDS011;6611;52.604;13.438;2023-04-25T05:52:38;3.50;;;2.30;;
13090;SDS011;6611;52.604;13.438;2023-04-25T05:57:41;4.97;;;2.20;;
13090;SDS011;6611;52.604;13.438;2023-04-25T06:02:45;3.93;;;2.43;;
13090;SDS011;6611;52.604;13.438;2023-04-25T06:07:46;2.63;;;2.10;;
13090;SDS011;6611;52.604;13.438;2023-04-25T06:12:49;4.40;;;2.87;;
13090;SDS011;6611;52.604;13.438;2023-04-25T06:17:51;4.13;;;2.30;;
13090;SDS011;6611;52.604;13.438;2023-04-25T06:22:53;3.83;;;2.30;;
13090;SDS011;6611;52.604;13.438;2023-04-25T06:27:56;3.53;;;2.40;;
13090;SDS011;6611;52.604;13.438;2023-04-25T06:32:57;3.60;;;2.50;;
13090;SDS011;6611;52.604;13.438;2023-04-25T06:37:59;4.57;;;2.80;;
13090;SDS011;6611;52.604;13.438;2023-04-25T06:43:02;4.37;;;3.53;;
13090;SDS011;6611;52.604;13.438;2023-04-25T06:48:04;6.33;;;2.60;;
13090;SDS011;6611;52.604;13.438;2023-04-25T06:53:06;7.33;;;2.77;;
13090;SDS011;6611;52.604;13.438;2023-04-25T06:58:10;4.43;;;2.87;;
13090;SDS011;6611;52.604;13.438;2023-04-25T07:03:11;4.50;;;2.40;;
13090;SDS011;6611;52.604;13.438;2023-04-25T07:08:13;4.73;;;2.57;;
13090;SDS011;6611;52.604;13.438;2023-04-25T07:13:16;6.63;;;2.80;;
13090;SDS011;6611;52.604;13.438;2023-04-25T07:18:18;3.60;;;2.23;;
13090;SDS011;6611;52.604;13.438;2023-04-25T07:23:19;5.57;;;2.30;;
13090;SDS011;6611;52.604;13.438;2023-04-25T07:28:22;4.37;;;2.70;;
13090;SDS011;6611;52.604;13.438;2023-04-25T07:33:24;3.97;;;2.47;;
13090;SDS011;6611;52.604;13.438;2023-04-25T07:38:26;5.30;;;2.50;;
13090;SDS011;6611;52.604;13.438;2023-04-25T07:43:29;4.97;;;2.13;;
13090;SDS011;6611;52.604;13.438;2023-04-25T07:48:30;4.87;;;2.23;;
13090;SDS011;6611;52.604;13.438;2023-04-25T07:53:32;2.13;;;1.73;;
13090;SDS011;6611;52.604;13.438;2023-04-25T07:58:37;10.20;;;2.37;;
13090;SDS011;6611;52.604;13.438;2023-04-25T08:03:38;5.13;;;2.33;;
13090;SDS011;6611;52.604;13.438;2023-04-25T08:08:40;5.47;;;2.00;;
13090;SDS011;6611;52.604;13.438;2023-04-25T08:13:43;5.23;;;2.13;;
13090;SDS011;6611;52.604;13.438;2023-04-25T08:18:45;7.17;;;2.03;;
13090;SDS011;6611;52.604;13.438;2023-04-25T08:23:47;6.60;;;1.73;;
13090;SDS011;6611;52.604;13.438;2023-04-25T08:28:50;4.40;;;1.80;;
13090;SDS011;6611;52.604;13.438;2023-04-25T08:33:52;6.57;;;1.90;;
13090;SDS011;6611;52.604;13.438;2023-04-25T08:38:53;9.23;;;2.07;;
13090;SDS011;6611;52.604;13.438;2023-04-25T08:43:56;5.73;;;2.10;;
13090;SDS011;6611;52.604;13.438;2023-04-25T08:49:01;7.70;;;2.17;;
13090;SDS011;6611;52.604;13.438;2023-04-25T08:54:05;6.00;;;2.00;;
13090;SDS011;6611;52.604;13.438;2023-04-25T08:59:12;6.00;;;1.40;;
13090;SDS011;6611;52.604;13.438;2023-04-25T09:04:14;6.30;;;1.70;;
13090;SDS011;6611;52.604;13.438;2023-04-25T09:09:16;4.97;;;2.10;;
13090;SDS011;6611;52.604;13.438;2023-04-25T09:14:20;6.40;;;1.90;;
13090;SDS011;6611;52.604;13.438;2023-04-25T09:19:26;7.13;;;1.93;;
13090;SDS011;6611;52.604;13.438;2023-04-25T09:24:33;4.40;;;1.40;;
13090;SDS011;6611;52.604;13.438;2023-04-25T09:29:38;4.20;;;1.80;;
13090;SDS011;6611;52.604;13.438;2023-04-25T09:34:41;3.97;;;1.70;;
13090;SDS011;6611;52.604;13.438;2023-04-25T09:39:44;4.33;;;1.70;;
13090;SDS011;6611;52.604;13.438;2023-04-25T09:44:47;6.93;;;1.43;;
13090;SDS011;6611;52.604;13.438;2023-04-25T09:49:49;3.93;;;1.40;;
13090;SDS011;6611;52.604;13.438;2023-04-25T09:54:51;4.63;;;1.53;;
13090;SDS011;6611;52.604;13.438;2023-04-25T09:59:55;2.70;;;1.20;;
13090;SDS011;6611;52.604;13.438;2023-04-25T10:04:57;2.60;;;1.30;;
13090;SDS011;6611;52.604;13.438;2023-04-25T10:10:01;3.53;;;1.30;;
13090;SDS011;6611;52.604;13.438;2023-04-25T10:15:06;4.43;;;1.17;;
13090;SDS011;6611;52.604;13.438;2023-04-25T10:20:10;4.83;;;1.33;;
13090;SDS011;6611;52.604;13.438;2023-04-25T10:25:12;2.40;;;1.20;;
13090;SDS011;6611;52.604;13.438;2023-04-25T10:30:16;4.40;;;1.30;;
13090;SDS011;6611;52.604;13.438;2023-04-25T10:35:18;3.97;;;1.40;;
13090;SDS011;6611;52.604;13.438;2023-04-25T10:40:25;2.97;;;1.33;;
13090;SDS011;6611;52.604;13.438;2023-04-25T10:45:28;5.13;;;1.20;;
13090;SDS011;6611;52.604;13.438;2023-04-25T10:50:36;2.50;;;1.23;;
13090;SDS011;6611;52.604;13.438;2023-04-25T10:55:48;4.23;;;1.60;;
13090;SDS011;6611;52.604;13.438;2023-04-25T11:00:52;5.80;;;1.20;;
13090;SDS011;6611;52.604;13.438;2023-04-25T11:05:54;5.97;;;1.13;;
13090;SDS011;6611;52.604;13.438;2023-04-25T11:10:56;2.03;;;0.90;;
13090;SDS011;6611;52.604;13.438;2023-04-25T11:15:59;2.87;;;1.33;;
13090;SDS011;6611;52.604;13.438;2023-04-25T11:21:02;2.57;;;0.83;;
13090;SDS011;6611;52.604;13.438;2023-04-25T11:26:04;1.77;;;0.93;;
13090;SDS011;6611;52.604;13.438;2023-04-25T11:31:08;3.13;;;1.10;;
13090;SDS011;6611;52.604;13.438;2023-04-25T11:36:10;3.23;;;1.00;;
13090;SDS011;6611;52.604;13.438;2023-04-25T11:41:12;5.00;;;0.90;;
13090;SDS011;6611;52.604;13.438;2023-04-25T11:46:15;3.27;;;1.20;;
13090;SDS011;6611;52.604;13.438;2023-04-25T11:51:17;4.03;;;1.13;;
13090;SDS011;6611;52.604;13.438;2023-04-25T11:56:18;4.30;;;1.00;;
13090;SDS011;6611;52.604;13.438;2023-04-25T12:01:29;3.40;;;1.00;;
13090;SDS011;6611;52.604;13.438;2023-04-25T12:06:32;4.40;;;1.10;;
13090;SDS011;6611;52.604;13.438;2023-04-25T12:11:41;4.17;;;1.03;;
13090;SDS011;6611;52.604;13.438;2023-04-25T12:16:45;6.37;;;1.60;;
13090;SDS011;6611;52.604;13.438;2023-04-25T12:21:48;1.83;;;0.90;;
13090;SDS011;6611;52.604;13.438;2023-04-25T12:26:50;2.87;;;1.20;;
13090;SDS011;6611;52.604;13.438;2023-04-25T12:31:54;2.73;;;1.07;;
13090;SDS011;6611;52.604;13.438;2023-04-25T12:36:57;3.63;;;0.97;;
13090;SDS011;6611;52.604;13.438;2023-04-25T12:41:58;2.77;;;0.90;;
13090;SDS011;6611;52.604;13.438;2023-04-25T12:47:02;1.63;;;0.90;;
13090;SDS011;6611;52.604;13.438;2023-04-25T12:52:05;1.87;;;0.80;;
13090;SDS011;6611;52.604;13.438;2023-04-25T12:57:07;3.60;;;1.10;;
13090;SDS011;6611;52.604;13.438;2023-04-25T13:02:10;2.63;;;1.00;;
13090;SDS011;6611;52.604;13.438;2023-04-25T13:07:12;1.90;;;1.20;;
13090;SDS011;6611;52.604;13.438;2023-04-25T13:12:14;4.50;;;1.20;;
13090;SDS011;6611;52.604;13.438;2023-04-25T13:17:17;1.37;;;1.00;;
13090;SDS011;6611;52.604;13.438;2023-04-25T13:22:19;1.80;;;0.80;;
13090;SDS011;6611;52.604;13.438;2023-04-25T13:27:20;1.40;;;0.87;;
13090;SDS011;6611;52.604;13.438;2023-04-25T13:32:23;2.77;;;0.80;;
13090;SDS011;6611;52.604;13.438;2023-04-25T13:37:25;2.37;;;1.13;;
13090;SDS011;6611;52.604;13.438;2023-04-25T13:42:27;1.00;;;0.80;;
13090;SDS011;6611;52.604;13.438;2023-04-25T13:47:30;3.30;;;1.10;;
13090;SDS011;6611;52.604;13.438;2023-04-25T13:52:32;2.23;;;1.07;;
13090;SDS011;6611;52.604;13.438;2023-04-25T13:57:34;2.60;;;0.97;;
13090;SDS011;6611;52.604;13.438;2023-04-25T14:02:38;1.10;;;0.70;;
13090;SDS011;6611;52.604;13.438;2023-04-25T14:07:40;1.30;;;0.87;;
13090;SDS011;6611;52.604;13.438;2023-04-25T14:12:41;4.67;;;0.90;;
13090;SDS011;6611;52.604;13.438;2023-04-25T14:17:44;2.53;;;0.93;;
13090;SDS011;6611;52.604;13.438;2023-04-25T14:22:48;1.40;;;0.77;;
13090;SDS011;6611;52.604;13.438;2023-04-25T14:27:49;3.87;;;1.03;;
13090;SDS011;6611;52.604;13.438;2023-04-25T14:32:53;3.33;;;1.00;;
13090;SDS011;6611;52.604;13.438;2023-04-25T14:37:55;1.10;;;1.00;;
13090;SDS011;6611;52.604;13.438;2023-04-25T14:42:57;4.43;;;1.00;;
13090;SDS011;6611;52.604;13.438;2023-04-25T14:48:00;1.77;;;0.90;;
13090;SDS011;6611;52.604;13.438;2023-04-25T14:53:01;1.43;;;0.70;;
13090;SDS011;6611;52.604;13.438;2023-04-25T14:58:03;2.30;;;0.70;;
13090;SDS011;6611;52.604;13.438;2023-04-25T15:03:07;3.17;;;0.97;;
13090;SDS011;6611;52.604;13.438;2023-04-25T15:08:11;1.40;;;0.60;;
13090;SDS011;6611;52.604;13.438;2023-04-25T15:13:13;2.13;;;0.70;;
13090;SDS011;6611;52.604;13.438;2023-04-25T15:18:16;0.70;;;0.63;;
13090;SDS011;6611;52.604;13.438;2023-04-25T15:23:22;2.40;;;0.90;;
13090;SDS011;6611;52.604;13.438;2023-04-25T15:28:24;1.63;;;0.60;;
13090;SDS011;6611;52.604;13.438;2023-04-25T15:33:27;1.67;;;0.50;;
13090;SDS011;6611;52.604;13.438;2023-04-25T15:38:29;1.17;;;0.60;;
13090;SDS011;6611;52.604;13.438;2023-04-25T15:43:31;0.70;;;0.40;;
13090;SDS011;6611;52.604;13.438;2023-04-25T15:48:37;0.60;;;0.60;;
13090;SDS011;6611;52.604;13.438;2023-04-25T15:53:38;3.50;;;0.80;;
13090;SDS011;6611;52.604;13.438;2023-04-25T15:58:41;1.77;;;0.50;;
13090;SDS011;6611;52.604;13.438;2023-04-25T16:03:44;1.33;;;0.57;;
13090;SDS011;6611;52.604;13.438;2023-04-25T16:08:45;3.20;;;0.63;;
13090;SDS011;6611;52.604;13.438;2023-04-25T16:13:47;0.30;;;0.30;;
13090;SDS011;6611;52.604;13.438;2023-04-25T16:18:50;1.07;;;0.40;;
13090;SDS011;6611;52.604;13.438;2023-04-25T16:23:52;0.73;;;0.50;;
13090;SDS011;6611;52.604;13.438;2023-04-25T16:28:53;3.80;;;0.83;;
13090;SDS011;6611;52.604;13.438;2023-04-25T16:33:56;3.33;;;0.70;;
13090;SDS011;6611;52.604;13.438;2023-04-25T16:38:58;1.23;;;0.60;;
13090;SDS011;6611;52.604;13.438;2023-04-25T16:44:00;2.30;;;0.77;;
13090;SDS011;6611;52.604;13.438;2023-04-25T16:49:03;3.27;;;0.80;;
13090;SDS011;6611;52.604;13.438;2023-04-25T16:54:05;4.10;;;0.70;;
13090;SDS011;6611;52.604;13.438;2023-04-25T16:59:07;1.00;;;0.47;;
13090;SDS011;6611;52.604;13.438;2023-04-25T17:04:10;2.20;;;0.67;;
13090;SDS011;6611;52.604;13.438;2023-04-25T17:09:11;1.47;;;0.77;;
13090;SDS011;6611;52.604;13.438;2023-04-25T17:14:13;2.70;;;0.70;;
13090;SDS011;6611;52.604;13.438;2023-04-25T17:19:16;2.43;;;0.53;;
13090;SDS011;6611;52.604;13.438;2023-04-25T17:24:18;0.80;;;0.50;;
13090;SDS011;6611;52.604;13.438;2023-04-25T17:29:20;2.27;;;1.00;;
13090;SDS011;6611;52.604;13.438;2023-04-25T17:34:24;1.47;;;0.70;;
13090;SDS011;6611;52.604;13.438;2023-04-25T17:39:25;3.27;;;0.60;;
13090;SDS011;6611;52.604;13.438;2023-04-25T17:44:27;2.07;;;0.50;;
13090;SDS011;6611;52.604;13.438;2023-04-25T17:49:30;4.30;;;0.97;;
13090;SDS011;6611;52.604;13.438;2023-04-25T17:54:32;1.70;;;0.73;;
13090;SDS011;6611;52.604;13.438;2023-04-25T17:59:34;3.03;;;0.60;;
13090;SDS011;6611;52.604;13.438;2023-04-25T18:04:38;1.93;;;1.10;;
13090;SDS011;6611;52.604;13.438;2023-04-25T18:09:39;2.97;;;0.80;;
13090;SDS011;6611;52.604;13.438;2023-04-25T18:14:41;1.63;;;0.83;;
13090;SDS011;6611;52.604;13.438;2023-04-25T18:19:44;2.40;;;1.00;;
13090;SDS011;6611;52.604;13.438;2023-04-25T18:24:47;2.87;;;1.20;;
13090;SDS011;6611;52.604;13.438;2023-04-25T18:29:50;2.33;;;1.17;;
13090;SDS011;6611;52.604;13.438;2023-04-25T18:34:54;3.07;;;1.00;;
13090;SDS011;6611;52.604;13.438;2023-04-25T18:39:55;1.10;;;0.50;;
13090;SDS011;6611;52.604;13.438;2023-04-25T18:44:57;1.13;;;0.80;;
13090;SDS011;6611;52.604;13.438;2023-04-25T18:50:00;4.50;;;1.00;;
13090;SDS011;6611;52.604;13.438;2023-04-25T18:55:04;3.20;;;1.10;;
13090;SDS011;6611;52.604;13.438;2023-04-25T19:00:07;2.27;;;0.90;;
13090;SDS011;6611;52.604;13.438;2023-04-25T19:05:11;2.87;;;0.80;;
13090;SDS011;6611;52.604;13.438;2023-04-25T19:10:13;2.20;;;0.87;;
13090;SDS011;6611;52.604;13.438;2023-04-25T19:15:14;1.43;;;0.60;;
13090;SDS011;6611;52.604;13.438;2023-04-25T19:20:18;2.43;;;0.60;;
13090;SDS011;6611;52.604;13.438;2023-04-25T19:25:20;3.03;;;1.23;;
13090;SDS011;6611;52.604;13.438;2023-04-25T19:30:23;1.77;;;0.63;;
13090;SDS011;6611;52.604;13.438;2023-04-25T19:35:26;1.53;;;0.77;;
13090;SDS011;6611;52.604;13.438;2023-04-25T19:40:31;2.83;;;0.90;;
13090;SDS011;6611;52.604;13.438;2023-04-25T19:45:33;3.63;;;0.97;;
13090;SDS011;6611;52.604;13.438;2023-04-25T19:50:37;1.43;;;0.70;;
13090;SDS011;6611;52.604;13.438;2023-04-25T19:55:38;1.87;;;0.83;;
13090;SDS011;6611;52.604;13.438;2023-04-25T20:00:40;2.10;;;0.80;;
13090;SDS011;6611;52.604;13.438;2023-04-25T20:05:43;2.63;;;0.80;;
13090;SDS011;6611;52.604;13.438;2023-04-25T20:10:45;2.33;;;0.83;;
13090;SDS011;6611;52.604;13.438;2023-04-25T20:15:46;3.43;;;1.07;;
13090;SDS011;6611;52.604;13.438;2023-04-25T20:20:49;2.07;;;0.80;;
13090;SDS011;6611;52.604;13.438;2023-04-25T20:25:51;2.87;;;1.10;;
13090;SDS011;6611;52.604;13.438;2023-04-25T20:30:53;3.97;;;0.90;;
13090;SDS011;6611;52.604;13.438;2023-04-25T20:35:56;3.30;;;0.97;;
13090;SDS011;6611;52.604;13.438;2023-04-25T20:40:58;2.17;;;0.90;;
13090;SDS011;6611;52.604;13.438;2023-04-25T20:46:00;3.47;;;0.97;;
13090;SDS011;6611;52.604;13.438;2023-04-25T20:51:03;2.23;;;1.00;;
13090;SDS011;6611;52.604;13.438;2023-04-25T20:56:06;3.70;;;0.80;;
13090;SDS011;6611;52.604;13.438;2023-04-25T21:01:09;2.80;;;1.00;;
13090;SDS011;6611;52.604;13.438;2023-04-25T21:06:12;2.33;;;0.97;;
13090;SDS011;6611;52.604;13.438;2023-04-25T21:11:14;2.10;;;1.03;;
13090;SDS011;6611;52.604;13.438;2023-04-25T21:16:16;1.37;;;0.87;;
13090;SDS011;6611;52.604;13.438;2023-04-25T21:21:19;2.57;;;0.90;;
13090;SDS011;6611;52.604;13.438;2023-04-25T21:26:21;5.57;;;1.27;;
13090;SDS011;6611;52.604;13.438;2023-04-25T21:31:23;1.90;;;1.07;;
13090;SDS011;6611;52.604;13.438;2023-04-25T21:36:26;2.20;;;1.10;;
13090;SDS011;6611;52.604;13.438;2023-04-25T21:41:28;1.80;;;1.00;;
13090;SDS011;6611;52.604;13.438;2023-04-25T21:46:31;3.13;;;1.10;;
13090;SDS011;6611;52.604;13.438;2023-04-25T21:51:35;1.43;;;0.80;;
13090;SDS011;6611;52.604;13.438;2023-04-25T21:56:37;2.97;;;1.00;;
13090;SDS011;6611;52.604;13.438;2023-04-25T22:01:38;2.40;;;0.73;;
13090;SDS011;6611;52.604;13.438;2023-04-25T22:06:41;0.70;;;0.53;;
13090;SDS011;6611;52.604;13.438;2023-04-25T22:11:45;1.77;;;0.70;;
13090;SDS011;6611;52.604;13.438;2023-04-25T22:16:47;2.47;;;1.13;;
13090;SDS011;6611;52.604;13.438;2023-04-25T22:21:50;2.70;;;0.80;;
13090;SDS011;6611;52.604;13.438;2023-04-25T22:26:52;1.20;;;0.70;;
13090;SDS011;6611;52.604;13.438;2023-04-25T22:31:54;4.60;;;1.30;;
13090;SDS011;6611;52.604;13.438;2023-04-25T22:36:57;2.03;;;1.07;;
13090;SDS011;6611;52.604;13.438;2023-04-25T22:41:59;2.63;;;0.93;;
13090;SDS011;6611;52.604;13.438;2023-04-25T22:47:01;2.13;;;0.80;;
13090;SDS011;6611;52.604;13.438;2023-04-25T22:52:04;2.50;;;1.27;;
13090;SDS011;6611;52.604;13.438;2023-04-25T22:57:08;3.37;;;0.80;;
13090;SDS011;6611;52.604;13.438;2023-04-25T23:02:10;1.27;;;0.77;;
13090;SDS011;6611;52.604;13.438;2023-04-25T23:07:13;1.60;;;0.90;;
13090;SDS011;6611;52.604;13.438;2023-04-25T23:12:16;2.70;;;0.87;;
13090;SDS011;6611;52.604;13.438;2023-04-25T23:17:18;2.50;;;0.80;;
13090;SDS011;6611;52.604;13.438;2023-04-25T23:22:21;6.00;;;1.20;;
13090;SDS011;6611;52.604;13.438;2023-04-25T23:27:23;3.00;;;1.00;;
13090;SDS011;6611;52.604;13.438;2023-04-25T23:32:25;2.43;;;0.80;;
13090;SDS011;6611;52.604;13.438;2023-04-25T23:37:28;3.60;;;1.13;;
13090;SDS011;6611;52.604;13.438;2023-04-25T23:42:30;2.00;;;0.90;;
13090;SDS011;6611;52.604;13.438;2023-04-25T23:47:32;4.63;;;0.93;;
13090;SDS011;6611;52.604;13.438;2023-04-25T23:52:36;5.30;;;1.03;;
13090;SDS011;6611;52.604;13.438;2023-04-25T23:57:38;1.43;;;0.80;;
